Portada
METAR-TAF:

METAR-TAF

Aeropuertos :

Ciudad del Cabo, Sudáfrica

Aeropuerto Internacional de la Ciudad del Cabo

latitud: 33-59S, longitud: 018-36E, altitud: 42 m

Observación

El informe se hizo hace 36 minutos, a las 23:00 UTC
Viento 7 kt del noreste
Temperatura 11°C
Humedad 94%
Presión 1025 hPa
Visibilidad 10 km o más
Escasas nubes a una altura de 4000 ft

METAR: FACT 202300Z 04007KT 9999 FEW040 11/10 Q1025 NOSIG

Hora: 01:36 (23:36 UTC)

Pronóstico

El informe se hizo hace 7 horas y 36 minutos, a las 16:00 UTC
Pronóstico válido del 20 a las 18 UTC al 21 a las 24 UTC
Viento 6 kt del norte-noroeste
Visibilidad 10 km o más
Escasas nubes a una altura de 3500 ft
Evolucionando progresivamente
del 21 a las 11 UTC al 21 a las 13 UTC
Viento 10 kt del sur

TAF: FACT 201600Z 2018/2124 33006KT 9999 FEW035 BECMG 2111/2113 19010KT TX22/2112Z TN09/2104Z

Observaciones y pronósticos meteorológicos de más de 4000 aeropuertos (mensajes METAR y TAF).

Los puntos amarillos y rojos representan las estaciones disponibles.

Ponga el ratón en el punto deseado para ver el nombre de la estación.

Haga clic para ver las observaciones y los pronósticos meteorológicos.

Para cambiar el mapa : haga clic en los botones verdes con una cruz de color negro para hacer un zoom, en el botón verde con un guión para alejar o en las flechas verdes para mapas adyacentes.


METAR-TAF: